Grosse Ile, MI

1:29 PM EDT on March 29, 2017 (GMT -0400)
Grosse Ile Municipal

Weather History for KONZ - February, 2013

Change the Weather History Date:

Tuesday, February 12, 2013

  Actual Average (KDTW) Record (KDTW)
Temperature  
Mean Temperature 32 °F -  
Max Temperature 33 °F 31 °F 62 °F (1999)
Min Temperature 28 °F 16 °F -14 °F (1875)
Degree Days  
Heating Degree Days 34    
Moisture  
Dew Point 23 °F    
Average Humidity 68    
Maximum Humidity 75    
Minimum Humidity 60    
Precipitation  
Precipitation 0.00 in - - ()
Sea Level Pressure  
Sea Level Pressure 29.96 in    
Wind  
Wind Speed 10 mph (West)    
Max Wind Speed 17 mph    
Max Gust Speed 24 mph    
Visibility 10 miles    
Events      
Averages and records for this station are not official NWS values.
T = Trace of Precipitation, MM = Missing Value Source: NWS Daily Summary

Daily Weather History Graph

Daily Weather History Graph

Search for Another Location

Airport or City:

Trip Planner

Search our weather history database for the weather conditions in past years. The results will help you decide how hot, cold, wet, or windy it might be!

Date:

Astronomy

Feb. 12, 2013 Rise Set
Actual Time 7:32 AM EST 6:01 PM EST
Civil Twilight 7:03 AM EST 6:30 PM EST
Nautical Twilight 6:30 AM EST 7:03 PM EST
Astronomical Twilight 5:58 AM EST 7:36 PM EST
Moon 8:25 AM EST (2/12) 9:05 PM EST (2/12)
Length of Visible Light 11h 27m
Length of Day
10h 29m
Waxing Crescent, 7% of the Moon is Illuminated
Feb 12
Waxing Crescent
Feb 17
First Quarter
Feb 25
Full
Mar 4
Last Quarter
Mar 11
New

Hourly Weather History & Observations

Time (EST) Temp. Windchill Dew Point Humidity Pressure Visibility Wind Dir Wind Speed Gust Speed Precip Events Conditions
12:14 AM 33.8 °F 24.8 °F 24.8 °F 70% 29.88 in 10.0 mi West 12.7 mph 18.4 mph N/A   Overcast
12:34 AM 33.8 °F 25.3 °F 24.8 °F 70% 29.88 in 10.0 mi West 11.5 mph 19.6 mph N/A   Overcast
12:54 AM 33.8 °F 25.8 °F 24.8 °F 70% 29.89 in 10.0 mi West 10.4 mph 21.9 mph N/A   Overcast
1:14 AM 33.8 °F 24.8 °F 24.8 °F 70% 29.90 in 10.0 mi West 12.7 mph 21.9 mph N/A   Overcast
1:34 AM 33.8 °F 25.8 °F 24.8 °F 70% 29.90 in 10.0 mi West 10.4 mph 19.6 mph N/A   Overcast
1:54 AM 32.0 °F 23.6 °F 24.8 °F 75% 29.91 in 10.0 mi WSW 10.4 mph 18.4 mph N/A   Overcast
2:14 AM 32.0 °F 23.6 °F 24.8 °F 75% 29.91 in 10.0 mi WSW 10.4 mph 18.4 mph N/A   Overcast
2:34 AM 32.0 °F 24.8 °F 23.0 °F 69% 29.92 in 10.0 mi WSW 8.1 mph - N/A   Overcast
2:55 AM 32.0 °F 23.0 °F 23.0 °F 69% 29.92 in 10.0 mi WSW 11.5 mph 17.3 mph N/A   Overcast
3:14 AM 32.0 °F 22.5 °F 23.0 °F 69% 29.93 in 10.0 mi WSW 12.7 mph 16.1 mph N/A   Overcast
3:34 AM 32.0 °F 24.2 °F 23.0 °F 69% 29.93 in 10.0 mi West 9.2 mph 20.7 mph N/A   Overcast
3:54 AM 32.0 °F 24.2 °F 23.0 °F 69% 29.94 in 10.0 mi West 9.2 mph 16.1 mph N/A   Overcast
4:14 AM 32.0 °F 23.0 °F 23.0 °F 69% 29.95 in 10.0 mi West 11.5 mph 17.3 mph N/A   Overcast
4:34 AM 32.0 °F 23.6 °F 23.0 °F 69% 29.95 in 10.0 mi West 10.4 mph - N/A   Overcast
4:54 AM 32.0 °F 24.2 °F 23.0 °F 69% 29.96 in 10.0 mi West 9.2 mph - N/A   Overcast
5:14 AM 32.0 °F 25.6 °F 23.0 °F 69% 29.96 in 10.0 mi West 6.9 mph - N/A   Overcast
5:34 AM 32.0 °F 26.4 °F 23.0 °F 69% 29.97 in 10.0 mi WSW 5.8 mph - N/A   Overcast
5:54 AM 32.0 °F 23.6 °F 23.0 °F 69% 29.97 in 10.0 mi West 10.4 mph - N/A   Overcast
6:14 AM 32.0 °F 24.2 °F 23.0 °F 69% 29.98 in 10.0 mi West 9.2 mph 19.6 mph N/A   Overcast
6:34 AM 32.0 °F 24.8 °F 23.0 °F 69% 29.98 in 10.0 mi West 8.1 mph - N/A   Overcast
6:54 AM 32.0 °F 22.1 °F 23.0 °F 69% 29.99 in 10.0 mi West 13.8 mph - N/A   Overcast
7:14 AM 32.0 °F 23.6 °F 23.0 °F 69% 30.00 in 10.0 mi West 10.4 mph 24.2 mph N/A   Overcast
7:35 AM 32.0 °F 20.8 °F 23.0 °F 69% 30.00 in 10.0 mi West 17.3 mph 20.7 mph N/A   Overcast
7:54 AM 32.0 °F 22.5 °F 23.0 °F 69% 30.01 in 10.0 mi West 12.7 mph 17.3 mph N/A   Overcast
8:14 AM 32.0 °F 25.6 °F 23.0 °F 69% 30.02 in 10.0 mi West 6.9 mph - N/A   Overcast
8:34 AM 32.0 °F 25.6 °F 23.0 °F 69% 30.02 in 10.0 mi West 6.9 mph - N/A   Overcast
8:54 AM 32.0 °F 23.6 °F 23.0 °F 69% 30.03 in 10.0 mi West 10.4 mph 18.4 mph N/A   Overcast
9:14 AM 32.0 °F 24.2 °F 23.0 °F 69% 30.03 in 10.0 mi West 9.2 mph - N/A   Overcast
9:34 AM 32.0 °F 24.8 °F 23.0 °F 69% 30.03 in 10.0 mi West 8.1 mph - N/A   Overcast
9:54 AM 32.0 °F 26.4 °F 23.0 °F 69% 30.03 in 10.0 mi West 5.8 mph - N/A   Overcast
10:14 AM 32.0 °F 24.2 °F 21.2 °F 64% 30.04 in 10.0 mi West 9.2 mph - N/A   Overcast
10:34 AM 32.0 °F 24.8 °F 21.2 °F 64% 30.03 in 10.0 mi WSW 8.1 mph - N/A   Overcast
10:54 AM 32.0 °F 23.6 °F 21.2 °F 64% 30.04 in 10.0 mi WSW 10.4 mph - N/A   Overcast
11:14 AM 32.0 °F 23.0 °F 21.2 °F 64% 30.03 in 10.0 mi West 11.5 mph - N/A   Overcast
11:34 AM 32.0 °F 24.2 °F 21.2 °F 64% 30.02 in 10.0 mi West 9.2 mph - N/A   Overcast
11:54 AM 33.8 °F 24.8 °F 21.2 °F 60% 30.03 in 10.0 mi West 12.7 mph - N/A   Overcast
12:15 PM 32.0 °F 23.6 °F 23.0 °F 69% 30.03 in 10.0 mi WSW 10.4 mph - N/A   Overcast
12:34 PM 32.0 °F 24.2 °F 23.0 °F 69% 30.03 in 10.0 mi WSW 9.2 mph - N/A   Overcast
12:54 PM 32.0 °F 24.2 °F 23.0 °F 69% 30.01 in 10.0 mi WSW 9.2 mph - N/A   Overcast
1:14 PM 33.8 °F 25.3 °F 21.2 °F 60% 30.00 in 10.0 mi West 11.5 mph 16.1 mph N/A   Overcast
1:34 PM 33.8 °F 27.0 °F 23.0 °F 65% 29.97 in 10.0 mi WSW 8.1 mph - N/A   Overcast
1:54 PM 33.8 °F 26.4 °F 24.8 °F 70% 29.95 in 10.0 mi WSW 9.2 mph - N/A   Overcast
2:14 PM 33.8 °F 27.7 °F 23.0 °F 65% 29.94 in 10.0 mi WSW 6.9 mph - N/A   Overcast
2:34 PM 33.8 °F 27.7 °F 23.0 °F 65% 29.94 in 10.0 mi WSW 6.9 mph - N/A   Overcast
2:54 PM 33.8 °F 27.0 °F 21.2 °F 60% 29.95 in 10.0 mi WSW 8.1 mph - N/A   Overcast
3:14 PM 33.8 °F 26.4 °F 21.2 °F 60% 29.95 in 10.0 mi WSW 9.2 mph - N/A   Overcast
3:34 PM 33.8 °F 27.7 °F 21.2 °F 60% 29.96 in 10.0 mi WSW 6.9 mph - N/A   Overcast
3:54 PM 33.8 °F 25.3 °F 21.2 °F 60% 29.97 in 10.0 mi West 11.5 mph - N/A   Overcast
4:14 PM 33.8 °F 25.8 °F 21.2 °F 60% 29.96 in 10.0 mi WSW 10.4 mph - N/A   Overcast
4:34 PM 33.8 °F 27.0 °F 21.2 °F 60% 29.96 in 10.0 mi West 8.1 mph - N/A   Overcast
4:54 PM 33.8 °F 26.4 °F 23.0 °F 65% 29.96 in 10.0 mi SW 9.2 mph - N/A   Overcast
5:14 PM 33.8 °F 27.7 °F 23.0 °F 65% 29.96 in 10.0 mi WSW 6.9 mph - N/A   Overcast
5:34 PM 33.8 °F 28.6 °F 23.0 °F 65% 29.96 in 10.0 mi WSW 5.8 mph - N/A   Overcast
5:55 PM 33.8 °F 30.8 °F 23.0 °F 65% 29.96 in 10.0 mi SW 3.5 mph - N/A   Overcast
6:14 PM 33.8 °F 28.6 °F 24.8 °F 70% 29.96 in 10.0 mi SW 5.8 mph - N/A   Overcast
6:34 PM 33.8 °F 28.6 °F 24.8 °F 70% 29.96 in 10.0 mi SW 5.8 mph - N/A   Overcast
6:54 PM 33.8 °F 30.8 °F 24.8 °F 70% 29.96 in 10.0 mi SW 3.5 mph - N/A   Overcast
7:14 PM 33.8 °F 30.8 °F 24.8 °F 70% 29.95 in 10.0 mi West 3.5 mph - N/A   Overcast
7:34 PM 33.8 °F 30.8 °F 24.8 °F 70% 29.95 in 10.0 mi NW 3.5 mph - N/A   Overcast
7:54 PM 33.8 °F - 24.8 °F 70% 29.95 in 10.0 mi Calm Calm - N/A   Overcast
8:14 PM 33.8 °F 29.6 °F 23.0 °F 65% 29.95 in 10.0 mi West 4.6 mph - N/A   Overcast
8:34 PM 33.8 °F 27.7 °F 23.0 °F 65% 29.94 in 10.0 mi West 6.9 mph - N/A   Overcast
8:54 PM 32.0 °F 25.6 °F 23.0 °F 69% 29.93 in 10.0 mi WNW 6.9 mph - N/A   Overcast
9:14 PM 30.2 °F 22.6 °F 21.2 °F 69% 29.93 in 10.0 mi WNW 8.1 mph - N/A   Overcast
9:34 PM 30.2 °F 24.3 °F 21.2 °F 69% 29.92 in 10.0 mi WNW 5.8 mph - N/A   Overcast
9:54 PM 30.2 °F 24.3 °F 21.2 °F 69% 29.92 in 10.0 mi WNW 5.8 mph - N/A   Overcast
10:14 PM 30.2 °F 23.4 °F 21.2 °F 69% 29.91 in 10.0 mi NW 6.9 mph - N/A   Mostly Cloudy
10:34 PM 30.2 °F 22.6 °F 21.2 °F 69% 29.91 in 10.0 mi WNW 8.1 mph - N/A   Scattered Clouds
10:54 PM 30.2 °F 23.4 °F 21.2 °F 69% 29.92 in 10.0 mi WNW 6.9 mph - N/A   Mostly Cloudy
11:14 PM 30.2 °F 23.4 °F 21.2 °F 69% 29.91 in 10.0 mi WNW 6.9 mph - N/A   Mostly Cloudy
11:34 PM 30.2 °F 23.4 °F 21.2 °F 69% 29.91 in 10.0 mi West 6.9 mph - N/A   Mostly Cloudy
11:54 PM 28.4 °F 21.2 °F 21.2 °F 74% 29.90 in 10.0 mi WNW 6.9 mph - N/A   Overcast